createdAt,value
2022-10-26T00:11:40.663Z,4.7
2022-10-26T00:42:04.762Z,4.9
2022-10-26T01:12:22.961Z,5.7
2022-10-26T01:42:41.165Z,5.3
2022-10-26T02:12:59.333Z,6.3
2022-10-26T02:43:18.090Z,4.9
2022-10-26T03:13:35.926Z,5
2022-10-26T03:43:53.808Z,5.1
2022-10-26T04:14:12.100Z,9.5
2022-10-26T04:44:30.550Z,7.9
2022-10-26T05:45:07.065Z,5.2
2022-10-26T06:15:24.947Z,6.5
2022-10-26T06:45:42.319Z,5.1
2022-10-26T07:16:01.365Z,6.1
2022-10-26T07:46:20.172Z,5.9
2022-10-26T08:16:39.623Z,5.7
2022-10-26T08:47:00.802Z,4.7
2022-10-26T09:17:26.200Z,4.1
2022-10-26T09:47:46.706Z,4
2022-10-26T10:18:05.694Z,2.7
2022-10-26T10:48:32.519Z,2.3
2022-10-26T11:18:53.955Z,2.5
2022-10-26T11:49:10.400Z,3
2022-10-26T12:19:30.086Z,2.6
2022-10-26T12:49:49.380Z,2.7
2022-10-26T13:20:06.445Z,2.5
2022-10-26T13:50:23.125Z,3
2022-10-26T14:20:40.533Z,2.3
2022-10-26T14:51:02.517Z,2
2022-10-26T15:21:18.379Z,3
2022-10-26T15:51:35.848Z,4.1
2022-10-26T16:21:54.058Z,2.5
2022-10-26T16:52:10.709Z,2.1
2022-10-26T17:22:27.518Z,2.5
2022-10-26T17:52:47.567Z,2.9
2022-10-26T18:23:05.127Z,3
2022-10-26T18:53:22.270Z,3.5
2022-10-26T19:23:39.102Z,6.6
2022-10-26T21:55:24.302Z,9.4
2022-10-26T22:25:51.124Z,7.4
2022-10-26T22:56:24.470Z,9.9
2022-10-26T23:57:56.884Z,8.8
